createdAt,value
2017-11-17T00:00:00.595Z,50.37
2017-11-17T00:02:28.923Z,52.00
2017-11-17T00:04:58.015Z,48.67
2017-11-17T00:07:27.080Z,60.60
2017-11-17T00:09:55.373Z,56.37
2017-11-17T00:12:23.699Z,49.63
2017-11-17T00:14:51.996Z,53.23
2017-11-17T00:17:21.086Z,54.37
2017-11-17T00:19:49.401Z,57.80
2017-11-17T00:22:18.466Z,55.90
2017-11-17T00:24:46.871Z,49.97
2017-11-17T00:27:15.164Z,53.37
2017-11-17T00:29:43.495Z,54.00
2017-11-17T00:32:11.813Z,48.37
2017-11-17T00:34:40.245Z,50.77
2017-11-17T00:37:08.575Z,56.53
2017-11-17T00:39:36.878Z,59.07
2017-11-17T00:42:05.208Z,48.53
2017-11-17T00:44:33.550Z,51.17
2017-11-17T00:47:01.894Z,56.27
2017-11-17T00:49:30.196Z,48.80
2017-11-17T00:51:59.383Z,53.77
2017-11-17T00:54:27.706Z,48.47
2017-11-17T00:56:56.757Z,57.67
2017-11-17T00:59:25.087Z,51.77
2017-11-17T01:01:54.168Z,49.57
2017-11-17T01:04:23.248Z,44.97
2017-11-17T01:06:51.536Z,49.30
2017-11-17T01:09:19.904Z,51.00
2017-11-17T01:11:48.212Z,49.03
2017-11-17T01:14:16.507Z,49.37
2017-11-17T01:16:45.040Z,43.00
2017-11-17T01:19:13.332Z,49.20
2017-11-17T01:21:41.628Z,43.33
2017-11-17T01:24:09.966Z,46.60
2017-11-17T01:26:38.255Z,41.97
2017-11-17T01:29:06.544Z,42.93
2017-11-17T01:31:34.877Z,49.27
2017-11-17T01:34:03.211Z,56.63
2017-11-17T01:36:31.516Z,51.23
2017-11-17T01:38:59.808Z,50.33
2017-11-17T01:41:28.241Z,50.27
2017-11-17T01:43:56.570Z,45.17
2017-11-17T01:46:24.862Z,51.27
2017-11-17T01:48:53.156Z,49.60
2017-11-17T01:51:21.484Z,46.20
2017-11-17T01:53:49.788Z,56.23
2017-11-17T01:56:18.173Z,45.00
2017-11-17T01:58:46.561Z,50.13
2017-11-17T02:01:14.860Z,54.37
2017-11-17T02:03:43.156Z,50.27
2017-11-17T02:06:11.481Z,55.57
2017-11-17T02:08:39.780Z,53.27
2017-11-17T02:11:08.139Z,51.83
2017-11-17T02:13:37.197Z,47.13
2017-11-17T02:16:05.505Z,52.97
2017-11-17T02:18:33.820Z,61.57
2017-11-17T02:21:03.008Z,49.40
2017-11-17T02:23:32.216Z,45.97
2017-11-17T02:26:00.579Z,48.27
2017-11-17T02:28:28.875Z,47.40
2017-11-17T02:30:57.181Z,51.83
2017-11-17T02:33:25.506Z,45.53
2017-11-17T02:35:54.565Z,46.93
2017-11-17T02:38:22.870Z,48.60
2017-11-17T02:40:51.195Z,42.43
2017-11-17T02:43:20.258Z,48.23
2017-11-17T02:45:48.674Z,45.07
2017-11-17T02:48:17.060Z,51.90
2017-11-17T02:50:45.358Z,45.93
2017-11-17T02:53:13.676Z,42.27
2017-11-17T02:55:41.973Z,33.53
2017-11-17T02:58:10.265Z,34.20
2017-11-17T03:00:38.580Z,45.80
2017-11-17T03:03:06.859Z,32.97
2017-11-17T03:05:35.194Z,39.07
2017-11-17T03:08:03.494Z,39.77
2017-11-17T03:10:32.585Z,39.23
2017-11-17T03:13:00.972Z,37.77
2017-11-17T03:15:29.300Z,29.57
2017-11-17T03:17:57.593Z,35.07
2017-11-17T03:20:25.941Z,31.70
2017-11-17T03:22:54.230Z,35.63
2017-11-17T03:25:22.561Z,27.57
2017-11-17T03:27:50.852Z,31.20
2017-11-17T03:30:19.530Z,29.47
2017-11-17T03:32:48.609Z,34.90
2017-11-17T03:35:16.995Z,28.50
2017-11-17T03:37:45.313Z,31.27
2017-11-17T03:43:14.046Z,29.60
2017-11-17T03:45:43.099Z,30.30
2017-11-17T03:48:11.439Z,33.73
2017-11-17T03:50:39.755Z,28.13
2017-11-17T03:53:08.310Z,32.07
2017-11-17T03:55:36.608Z,36.03
2017-11-17T03:58:04.909Z,29.97
2017-11-17T04:00:33.988Z,30.93
2017-11-17T04:03:02.447Z,28.90
2017-11-17T04:05:30.769Z,31.03
2017-11-17T04:07:59.059Z,21.80
2017-11-17T04:10:27.354Z,35.93
2017-11-17T04:12:55.684Z,29.50
2017-11-17T04:15:23.986Z,33.80
2017-11-17T04:17:52.420Z,31.20
2017-11-17T04:20:20.724Z,30.07
2017-11-17T04:22:49.021Z,33.63
2017-11-17T04:25:18.129Z,33.63
2017-11-17T04:27:47.242Z,29.93
2017-11-17T04:30:16.334Z,38.03
2017-11-17T04:32:44.657Z,29.77
2017-11-17T04:35:12.947Z,28.73
2017-11-17T04:37:41.268Z,31.50
2017-11-17T04:40:09.985Z,36.10
2017-11-17T04:42:38.296Z,27.80
2017-11-17T04:45:06.598Z,34.13
2017-11-17T04:47:35.683Z,35.13
2017-11-17T04:50:03.981Z,28.50
2017-11-17T04:52:32.305Z,31.53
2017-11-17T04:55:00.590Z,31.03
2017-11-17T04:57:29.026Z,35.00
2017-11-17T04:59:57.314Z,33.87
2017-11-17T05:02:25.660Z,33.77
2017-11-17T05:04:53.951Z,33.37
2017-11-17T05:07:22.245Z,37.00
2017-11-17T05:09:50.575Z,42.10
2017-11-17T05:12:18.912Z,31.83
2017-11-17T05:14:47.996Z,34.23
2017-11-17T05:17:16.323Z,35.40
2017-11-17T05:19:44.615Z,34.60
2017-11-17T05:22:12.936Z,42.27
2017-11-17T05:24:41.220Z,40.70
2017-11-17T05:27:09.553Z,32.80
2017-11-17T05:29:38.635Z,34.60
2017-11-17T05:32:06.923Z,43.57
2017-11-17T05:34:35.261Z,39.10
2017-11-17T05:37:03.590Z,43.17
2017-11-17T05:39:31.880Z,40.50
2017-11-17T05:42:00.206Z,44.07
2017-11-17T05:44:29.307Z,46.67
2017-11-17T05:46:58.372Z,42.47
2017-11-17T05:49:26.705Z,48.67
2017-11-17T05:51:55.809Z,49.67
2017-11-17T05:54:24.193Z,58.80
2017-11-17T05:56:52.484Z,43.73
2017-11-17T05:59:20.971Z,38.57
2017-11-17T06:01:49.272Z,40.17
2017-11-17T06:04:17.563Z,41.30
2017-11-17T06:06:45.897Z,45.40
2017-11-17T06:09:14.193Z,43.70
2017-11-17T06:11:42.622Z,57.87
2017-11-17T06:14:10.912Z,47.40
2017-11-17T06:16:39.241Z,48.23
2017-11-17T06:19:07.528Z,57.20
2017-11-17T06:21:35.829Z,44.90
2017-11-17T06:24:04.144Z,47.90
2017-11-17T06:26:32.471Z,47.30
2017-11-17T06:29:00.900Z,49.57
2017-11-17T06:31:29.217Z,45.30
2017-11-17T06:33:57.575Z,44.63
2017-11-17T06:36:25.864Z,46.90
2017-11-17T06:38:54.192Z,57.83
2017-11-17T06:41:22.498Z,37.30
2017-11-17T06:43:50.838Z,50.83
2017-11-17T06:46:19.163Z,42.37
2017-11-17T06:48:47.673Z,49.27
2017-11-17T06:51:15.972Z,49.17
2017-11-17T06:53:44.360Z,42.60
2017-11-17T06:56:12.689Z,39.20
2017-11-17T06:58:41.119Z,45.53
2017-11-17T07:01:09.411Z,47.17
2017-11-17T07:03:37.733Z,39.97
2017-11-17T07:06:06.822Z,45.83
2017-11-17T07:08:35.121Z,42.00
2017-11-17T07:11:03.614Z,41.67
2017-11-17T07:13:32.717Z,36.20
2017-11-17T07:16:01.003Z,39.03
2017-11-17T07:18:29.331Z,35.43
2017-11-17T07:20:57.624Z,34.13
2017-11-17T07:23:25.949Z,39.80
2017-11-17T07:25:54.258Z,34.80
2017-11-17T07:28:22.564Z,38.20
2017-11-17T07:30:51.660Z,34.70
2017-11-17T07:33:19.951Z,35.00
2017-11-17T07:35:48.273Z,24.73
2017-11-17T07:38:16.568Z,23.17
2017-11-17T07:40:44.912Z,30.60
2017-11-17T07:43:13.191Z,29.87
2017-11-17T07:45:41.487Z,25.60
2017-11-17T07:48:09.815Z,24.93
2017-11-17T07:50:38.116Z,23.50
2017-11-17T07:53:06.440Z,23.63
2017-11-17T07:55:34.729Z,25.67
2017-11-17T07:58:03.061Z,26.80
2017-11-17T08:00:32.120Z,22.03
2017-11-17T08:03:00.404Z,15.80
2017-11-17T08:05:28.718Z,24.93
2017-11-17T08:07:57.097Z,21.47
2017-11-17T08:10:25.387Z,19.90
2017-11-17T08:12:53.721Z,20.27
2017-11-17T08:15:22.806Z,16.00
2017-11-17T08:20:49.791Z,14.13
2017-11-17T08:23:18.188Z,24.93
2017-11-17T08:25:46.479Z,12.23
2017-11-17T08:28:14.867Z,12.23
2017-11-17T08:30:43.140Z,12.33
2017-11-17T08:33:11.425Z,16.00
2017-11-17T08:35:39.932Z,13.60
2017-11-17T08:38:08.227Z,18.73
2017-11-17T08:40:36.618Z,13.80
2017-11-17T08:43:04.946Z,16.53
2017-11-17T08:45:33.294Z,9.83
2017-11-17T08:48:01.617Z,13.83
2017-11-17T08:50:30.788Z,16.37
2017-11-17T08:52:59.084Z,6.80
2017-11-17T08:55:27.382Z,12.97
2017-11-17T08:57:55.688Z,16.20
2017-11-17T09:00:24.744Z,5.63
2017-11-17T09:02:53.058Z,17.30
2017-11-17T09:05:21.344Z,8.43
2017-11-17T09:07:49.664Z,10.20
2017-11-17T09:10:18.720Z,7.80
2017-11-17T09:12:47.036Z,12.87
2017-11-17T09:15:15.376Z,17.23
2017-11-17T09:17:43.708Z,9.27
2017-11-17T09:20:12.093Z,7.10
2017-11-17T09:22:40.413Z,10.77
2017-11-17T09:25:09.504Z,9.73
2017-11-17T09:27:37.820Z,5.70
2017-11-17T09:30:06.873Z,10.30
2017-11-17T09:32:35.161Z,4.33
2017-11-17T09:35:03.476Z,6.97
2017-11-17T09:37:33.258Z,5.40
2017-11-17T09:40:01.541Z,3.43
2017-11-17T09:42:29.851Z,7.20
2017-11-17T09:44:58.131Z,5.83
2017-11-17T09:47:26.450Z,7.00
2017-11-17T09:49:54.730Z,9.70
2017-11-17T09:52:23.135Z,10.03
2017-11-17T09:54:51.421Z,8.43
2017-11-17T09:57:19.821Z,10.87
2017-11-17T09:59:48.207Z,11.33
2017-11-17T10:02:16.520Z,9.10
2017-11-17T10:04:45.621Z,6.10
2017-11-17T10:07:13.924Z,4.87
2017-11-17T10:09:42.977Z,6.37
2017-11-17T10:12:11.297Z,7.53
2017-11-17T10:14:39.580Z,13.03
2017-11-17T10:17:07.886Z,5.00
2017-11-17T10:19:36.278Z,6.87
2017-11-17T10:22:04.617Z,10.20
2017-11-17T10:24:32.907Z,7.20
2017-11-17T10:27:01.194Z,5.93
2017-11-17T10:29:29.502Z,6.37
2017-11-17T10:31:58.764Z,9.87
2017-11-17T10:34:27.836Z,10.57
2017-11-17T10:36:56.143Z,10.40
2017-11-17T10:39:25.197Z,9.37
2017-11-17T10:41:53.516Z,10.37
2017-11-17T10:44:21.823Z,5.87
2017-11-17T10:46:50.223Z,8.00
2017-11-17T10:49:18.529Z,10.80
2017-11-17T10:51:47.560Z,5.27
2017-11-17T10:54:15.876Z,7.70
2017-11-17T10:56:44.158Z,8.17
2017-11-17T10:59:18.488Z,7.20
2017-11-17T11:01:46.904Z,8.23
2017-11-17T11:04:15.296Z,9.20
2017-11-17T11:06:43.572Z,8.03
2017-11-17T11:09:11.885Z,7.27
2017-11-17T11:11:45.869Z,6.00
2017-11-17T11:14:14.148Z,7.70
2017-11-17T11:16:42.463Z,5.80
2017-11-17T11:19:10.852Z,8.67
2017-11-17T11:21:39.167Z,4.17
2017-11-17T11:24:07.516Z,9.00
2017-11-17T11:26:35.832Z,3.63
2017-11-17T11:29:04.112Z,5.70
2017-11-17T11:31:32.416Z,10.57
2017-11-17T11:34:00.788Z,7.80
2017-11-17T11:36:29.194Z,7.50
2017-11-17T11:38:57.487Z,7.17
2017-11-17T11:41:25.804Z,7.00
2017-11-17T11:43:54.897Z,7.23
2017-11-17T11:46:23.994Z,7.77
2017-11-17T11:48:52.297Z,10.37
2017-11-17T11:51:21.388Z,5.40
2017-11-17T11:53:49.679Z,11.07
2017-11-17T11:56:18.153Z,15.03
2017-11-17T11:58:46.428Z,4.17
2017-11-17T12:01:14.718Z,6.80
2017-11-17T12:03:43.115Z,9.23
2017-11-17T12:06:11.392Z,6.87
2017-11-17T12:08:39.668Z,5.87
2017-11-17T12:11:07.991Z,10.53
2017-11-17T12:13:36.301Z,8.37
2017-11-17T12:16:04.681Z,9.57
2017-11-17T12:18:33.088Z,6.70
2017-11-17T12:21:01.365Z,7.70
2017-11-17T12:23:29.847Z,12.93
2017-11-17T12:25:58.245Z,8.17
2017-11-17T12:28:26.636Z,9.87
2017-11-17T12:30:54.957Z,5.30
2017-11-17T12:33:24.012Z,8.70
2017-11-17T12:35:52.324Z,4.60
2017-11-17T12:38:20.640Z,8.87
2017-11-17T12:40:49.695Z,9.73
2017-11-17T12:43:18.117Z,11.33
2017-11-17T12:45:46.411Z,7.50
2017-11-17T12:48:14.793Z,4.77
2017-11-17T12:50:43.101Z,6.70
2017-11-17T12:53:12.184Z,7.50
2017-11-17T12:55:40.473Z,4.43
2017-11-17T12:58:08.792Z,6.20
2017-11-17T13:00:37.881Z,8.33
2017-11-17T13:03:06.188Z,4.83
2017-11-17T13:05:35.242Z,13.13
2017-11-17T13:08:03.567Z,5.00
2017-11-17T13:10:31.848Z,3.50
2017-11-17T13:13:00.152Z,9.67
2017-11-17T13:15:28.442Z,4.50
2017-11-17T13:17:56.828Z,8.83
2017-11-17T13:20:25.161Z,7.37
2017-11-17T13:22:53.444Z,8.13
2017-11-17T13:25:21.784Z,5.50
2017-11-17T13:27:51.014Z,7.00
2017-11-17T13:30:19.302Z,7.80
2017-11-17T13:32:47.678Z,3.03
2017-11-17T13:35:15.961Z,10.47
2017-11-17T13:37:44.273Z,6.90
2017-11-17T13:40:13.364Z,5.30
2017-11-17T13:42:41.653Z,6.60
2017-11-17T13:45:10.053Z,7.50
2017-11-17T13:47:39.855Z,9.20
2017-11-17T13:50:08.149Z,3.30
2017-11-17T13:52:36.457Z,11.37
2017-11-17T13:55:04.750Z,4.80
2017-11-17T13:57:33.064Z,6.80
2017-11-17T14:00:01.425Z,7.07
2017-11-17T14:02:29.712Z,8.33
2017-11-17T14:04:58.025Z,7.83
2017-11-17T14:07:27.093Z,5.40
2017-11-17T14:09:55.364Z,7.23
2017-11-17T14:12:23.715Z,4.47
2017-11-17T14:14:52.767Z,7.07
2017-11-17T14:17:21.048Z,12.67
2017-11-17T14:19:49.367Z,8.80
2017-11-17T14:22:17.850Z,12.43
2017-11-17T14:24:46.181Z,8.70
2017-11-17T14:27:15.232Z,5.63
2017-11-17T14:29:43.557Z,6.73
2017-11-17T14:32:13.409Z,11.77
2017-11-17T14:34:42.481Z,3.73
2017-11-17T14:37:10.878Z,8.20
2017-11-17T14:39:39.173Z,13.60
2017-11-17T14:42:08.577Z,6.90
2017-11-17T14:44:36.859Z,5.47
2017-11-17T14:47:05.136Z,9.30
2017-11-17T14:49:33.446Z,8.90
2017-11-17T14:52:01.760Z,6.87
2017-11-17T14:54:30.807Z,9.27
2017-11-17T14:56:59.123Z,6.07
2017-11-17T14:59:27.520Z,13.13
2017-11-17T15:01:55.849Z,11.20
2017-11-17T15:04:24.207Z,15.23
2017-11-17T15:06:52.517Z,19.23
2017-11-17T15:09:21.564Z,22.03
2017-11-17T15:11:49.880Z,12.80
2017-11-17T15:14:18.277Z,46.50
2017-11-17T15:16:46.584Z,9.60
2017-11-17T15:19:15.672Z,10.83
2017-11-17T15:21:43.984Z,23.10
2017-11-17T15:24:13.064Z,19.77
2017-11-17T15:26:41.469Z,17.03
2017-11-17T15:29:09.757Z,10.50
2017-11-17T15:31:38.074Z,11.80
2017-11-17T15:34:07.197Z,13.50
2017-11-17T15:36:35.703Z,10.00
2017-11-17T15:39:04.235Z,9.73
2017-11-17T15:41:32.568Z,10.93
2017-11-17T15:44:00.895Z,7.30
2017-11-17T15:46:29.216Z,11.90
2017-11-17T15:48:57.594Z,6.53
2017-11-17T15:51:25.912Z,4.93
2017-11-17T15:53:54.184Z,7.60
2017-11-17T15:56:22.579Z,4.70
2017-11-17T15:58:50.960Z,6.80
2017-11-17T16:01:19.308Z,7.00
2017-11-17T16:03:47.833Z,10.83
2017-11-17T16:06:16.150Z,10.13
2017-11-17T16:08:45.252Z,10.90
2017-11-17T16:11:13.642Z,2.97
2017-11-17T16:13:41.973Z,5.80
2017-11-17T16:16:10.441Z,15.30
2017-11-17T16:18:39.514Z,10.70
2017-11-17T16:21:07.828Z,12.50
2017-11-17T16:23:36.885Z,15.20
2017-11-17T16:26:05.268Z,12.70
2017-11-17T16:28:33.596Z,4.20
2017-11-17T16:31:01.896Z,4.60
2017-11-17T16:33:30.220Z,7.43
2017-11-17T16:35:58.572Z,6.43
2017-11-17T16:38:26.884Z,8.00
2017-11-17T16:40:55.965Z,2.80
2017-11-17T16:43:24.298Z,11.27
2017-11-17T16:45:53.331Z,7.60
2017-11-17T16:48:21.659Z,5.90
2017-11-17T16:50:49.976Z,5.57
2017-11-17T16:53:19.072Z,25.60
2017-11-17T16:55:48.282Z,11.20
2017-11-17T16:58:17.375Z,8.80
2017-11-17T17:00:45.730Z,7.10
2017-11-17T17:03:14.092Z,12.13
2017-11-17T17:05:42.450Z,14.63
2017-11-17T17:08:10.787Z,11.60
2017-11-17T17:10:39.103Z,15.23
2017-11-17T17:15:42.867Z,6.07
2017-11-17T17:18:11.203Z,6.30
2017-11-17T17:20:39.574Z,4.83
2017-11-17T17:23:09.010Z,5.70
2017-11-17T17:25:38.648Z,7.07
2017-11-17T17:28:06.965Z,10.77
2017-11-17T17:30:35.303Z,5.67
2017-11-17T17:33:03.612Z,3.77
2017-11-17T17:35:32.013Z,6.77
2017-11-17T17:38:01.246Z,9.57
2017-11-17T17:40:29.534Z,16.58
2017-11-17T17:42:57.845Z,19.60
2017-11-17T17:45:26.196Z,12.03
2017-11-17T17:47:54.489Z,12.67
2017-11-17T17:50:23.006Z,3.50
2017-11-17T17:52:51.296Z,8.50
2017-11-17T17:55:19.688Z,8.30
2017-11-17T17:57:47.992Z,7.07
2017-11-17T18:00:16.365Z,4.70
2017-11-17T18:02:44.725Z,14.47
2017-11-17T18:05:13.059Z,7.83
2017-11-17T18:07:41.407Z,6.80
2017-11-17T18:10:10.311Z,7.50
2017-11-17T18:12:39.038Z,16.85
2017-11-17T18:15:07.469Z,7.47
2017-11-17T18:17:36.554Z,12.53
2017-11-17T18:20:04.926Z,9.30
2017-11-17T18:22:33.239Z,6.97
2017-11-17T18:25:01.613Z,10.10
2017-11-17T18:27:29.955Z,5.63
2017-11-17T18:29:58.327Z,13.63
2017-11-17T18:32:27.400Z,7.70
2017-11-17T18:34:55.750Z,5.20
2017-11-17T18:37:24.066Z,5.07
2017-11-17T18:39:52.387Z,7.32
2017-11-17T18:42:20.771Z,4.57
2017-11-17T18:44:49.050Z,4.93
2017-11-17T18:47:17.375Z,6.10
2017-11-17T18:49:46.446Z,12.67
2017-11-17T18:52:14.745Z,8.15
2017-11-17T18:54:43.099Z,9.53
2017-11-17T18:57:11.376Z,7.90
2017-11-17T18:59:39.672Z,7.15
2017-11-17T19:02:07.976Z,5.05
2017-11-17T19:04:37.245Z,3.83
2017-11-17T19:07:05.541Z,12.23
2017-11-17T19:09:33.895Z,13.07
2017-11-17T19:12:02.221Z,4.68
2017-11-17T19:14:30.542Z,6.10
2017-11-17T19:16:59.819Z,9.77
2017-11-17T19:19:28.142Z,10.52
2017-11-17T19:21:56.468Z,9.57
2017-11-17T19:24:24.766Z,5.80
2017-11-17T19:26:53.076Z,7.90
2017-11-17T19:29:21.364Z,5.05
2017-11-17T19:31:49.814Z,10.63
2017-11-17T19:34:18.272Z,5.30
2017-11-17T19:36:46.550Z,9.90
2017-11-17T19:39:14.892Z,12.10
2017-11-17T19:41:43.276Z,10.60
2017-11-17T19:44:11.564Z,6.72
2017-11-17T19:46:39.935Z,7.45
2017-11-17T19:49:08.265Z,9.65
2017-11-17T19:51:36.572Z,5.50
2017-11-17T19:54:05.019Z,9.10
2017-11-17T19:56:33.366Z,11.77
2017-11-17T19:59:01.751Z,4.47
2017-11-17T20:01:30.093Z,6.22
2017-11-17T20:03:58.401Z,5.93
2017-11-17T20:06:26.885Z,3.63
2017-11-17T20:08:55.196Z,8.18
2017-11-17T20:11:23.490Z,8.20
2017-11-17T20:13:52.580Z,5.85
2017-11-17T20:16:20.895Z,3.63
2017-11-17T20:18:49.984Z,2.70
2017-11-17T20:21:18.344Z,4.70
2017-11-17T20:23:46.673Z,7.62
2017-11-17T20:26:15.769Z,3.53
2017-11-17T20:28:44.097Z,16.87
2017-11-17T20:31:12.392Z,6.17
2017-11-17T20:33:40.726Z,6.53
2017-11-17T20:36:09.061Z,7.53
2017-11-17T20:38:37.391Z,13.23
2017-11-17T20:41:05.728Z,8.33
2017-11-17T20:43:34.050Z,13.57
2017-11-17T20:46:02.376Z,8.75
2017-11-17T20:48:30.664Z,6.45
2017-11-17T20:50:58.990Z,4.75
2017-11-17T20:53:28.068Z,5.40
2017-11-17T20:55:56.401Z,5.93
2017-11-17T20:58:25.732Z,10.80
2017-11-17T21:00:54.035Z,8.77
2017-11-17T21:03:22.394Z,14.82
2017-11-17T21:05:50.766Z,11.27
2017-11-17T21:08:19.861Z,12.05
2017-11-17T21:10:48.946Z,4.37
2017-11-17T21:13:17.254Z,6.47
2017-11-17T21:15:45.589Z,11.77
2017-11-17T21:18:13.884Z,7.25
2017-11-17T21:20:42.199Z,11.87
2017-11-17T21:23:10.493Z,8.13
2017-11-17T21:25:38.881Z,8.35
2017-11-17T21:28:07.178Z,6.62
2017-11-17T21:30:35.682Z,10.30
2017-11-17T21:33:04.806Z,13.73
2017-11-17T21:35:33.880Z,12.57
2017-11-17T21:38:02.176Z,16.67
2017-11-17T21:40:30.505Z,13.20
2017-11-17T21:42:58.801Z,11.77
2017-11-17T21:45:27.102Z,16.30
2017-11-17T21:47:55.446Z,23.70
2017-11-17T21:50:24.651Z,15.30
2017-11-17T21:52:52.961Z,13.07
2017-11-17T21:55:22.077Z,11.18
2017-11-17T21:57:51.147Z,11.40
2017-11-17T22:00:19.476Z,13.27
2017-11-17T22:02:48.552Z,18.12
2017-11-17T22:05:17.045Z,12.60
2017-11-17T22:07:46.869Z,11.80
2017-11-17T22:10:15.160Z,14.13
2017-11-17T22:12:43.498Z,11.00
2017-11-17T22:15:11.860Z,13.38
2017-11-17T22:17:40.148Z,14.30
2017-11-17T22:20:09.215Z,21.83
2017-11-17T22:22:37.667Z,15.63
2017-11-17T22:25:05.988Z,13.27
2017-11-17T22:27:34.297Z,12.03
2017-11-17T22:30:02.642Z,12.20
2017-11-17T22:32:30.950Z,16.77
2017-11-17T22:34:59.261Z,16.25
2017-11-17T22:37:27.561Z,14.70
2017-11-17T22:39:55.902Z,12.75
2017-11-17T22:42:24.196Z,13.05
2017-11-17T22:44:52.515Z,12.10
2017-11-17T22:47:20.815Z,8.13
2017-11-17T22:49:49.137Z,6.72
2017-11-17T22:52:18.229Z,10.27
2017-11-17T22:54:46.561Z,11.97
2017-11-17T22:57:14.847Z,14.27
2017-11-17T22:59:43.165Z,10.98
2017-11-17T23:02:11.456Z,12.90
2017-11-17T23:04:39.785Z,17.85
2017-11-17T23:07:08.860Z,18.42
2017-11-17T23:09:37.186Z,14.65
2017-11-17T23:12:06.277Z,10.77
2017-11-17T23:14:34.588Z,6.57
2017-11-17T23:17:03.663Z,10.18
2017-11-17T23:19:31.971Z,9.55
2017-11-17T23:22:01.035Z,9.15
2017-11-17T23:24:29.364Z,16.27
2017-11-17T23:26:57.661Z,11.00
2017-11-17T23:29:26.764Z,13.10
2017-11-17T23:31:55.073Z,15.75
2017-11-17T23:34:24.160Z,10.93
2017-11-17T23:36:52.549Z,23.45
2017-11-17T23:39:20.912Z,17.10
2017-11-17T23:41:49.338Z,14.85
2017-11-17T23:44:18.437Z,15.38
2017-11-17T23:46:46.725Z,9.40
2017-11-17T23:49:15.080Z,14.35
2017-11-17T23:51:43.652Z,12.10
2017-11-17T23:54:11.948Z,12.13
2017-11-17T23:56:40.239Z,10.63
2017-11-17T23:59:08.552Z,20.60
